Time;durP1;ratioP1;P1;durP2;ratioP2;P2;SDS_P1;SDS_P2;PMS_P1;PMS_P2;Temp;Humidity;BMP_temperature;BMP_pressure;BME280_temperature;BME280_humidity;BME280_pressure;Samples;Min_cycle;Max_cycle;Signal;HPM_P1;HPM_P2
2021/06/12 00:01:16;;;;;;;5.07;4.20;;;16.00;94.20;;;;;;6152357;23;20005;-93
2021/06/12 00:03:42;;;;;;;4.93;4.43;;;16.00;94.50;;;;;;6151904;23;20387;-93
2021/06/12 00:06:08;;;;;;;4.45;3.92;;;16.00;94.40;;;;;;6153663;23;19994;-93
2021/06/12 00:08:34;;;;;;;4.65;4.10;;;16.00;94.40;;;;;;6152076;23;20006;-93
2021/06/12 00:11:01;;;;;;;4.97;4.40;;;16.00;94.60;;;;;;6152190;23;20006;-92
2021/06/12 00:13:27;;;;;;;5.25;4.28;;;15.90;94.70;;;;;;6153890;23;20016;-93
2021/06/12 00:15:55;;;;;;;5.20;4.30;;;15.90;94.80;;;;;;6152131;23;20006;-93
2021/06/12 00:18:21;;;;;;;5.57;4.30;;;15.90;94.80;;;;;;6152271;23;20001;-94
2021/06/12 00:20:46;;;;;;;5.63;4.07;;;15.90;94.80;;;;;;6152716;23;20036;-93
2021/06/12 00:23:12;;;;;;;4.93;4.30;;;15.90;94.80;;;;;;6152207;23;20002;-93
2021/06/12 00:25:38;;;;;;;4.35;3.90;;;15.90;94.80;;;;;;6152037;23;20337;-93
2021/06/12 00:28:05;;;;;;;5.40;4.65;;;15.90;94.90;;;;;;6153260;23;20009;-93
2021/06/12 00:30:31;;;;;;;5.35;4.65;;;15.80;95.00;;;;;;6157606;23;20002;-93
2021/06/12 00:32:57;;;;;;;7.40;4.22;;;15.90;95.00;;;;;;6157075;23;20013;-92
2021/06/12 00:35:23;;;;;;;5.43;4.80;;;15.90;95.30;;;;;;6155782;23;20001;-93
2021/06/12 00:37:48;;;;;;;4.57;4.00;;;15.90;95.00;;;;;;6154145;23;20314;-92
2021/06/12 00:40:16;;;;;;;5.13;4.43;;;15.90;95.00;;;;;;6152276;23;20008;-93
2021/06/12 00:42:43;;;;;;;5.10;4.38;;;15.90;95.00;;;;;;6151564;23;20013;-93
2021/06/12 00:45:13;;;;;;;4.85;3.92;;;15.90;94.90;;;;;;6152875;22;20359;-93
2021/06/12 00:47:39;;;;;;;5.50;4.60;;;15.90;94.90;;;;;;6152378;23;20029;-93
2021/06/12 00:50:07;;;;;;;5.28;4.68;;;15.90;94.90;;;;;;6153586;23;20025;-93
2021/06/12 00:52:33;;;;;;;5.40;4.40;;;15.90;95.00;;;;;;6151979;23;20017;-93
2021/06/12 00:54:59;;;;;;;5.25;3.95;;;15.80;95.00;;;;;;6152781;23;20005;-94
2021/06/12 00:57:24;;;;;;;5.55;4.65;;;15.80;95.00;;;;;;6153183;23;20089;-92
2021/06/12 00:59:50;;;;;;;5.13;4.50;;;15.80;95.10;;;;;;6153225;23;20005;-93
2021/06/12 01:02:16;;;;;;;6.90;4.93;;;15.80;95.40;;;;;;6153128;23;20078;-93
2021/06/12 01:04:42;;;;;;;7.28;4.15;;;15.80;95.20;;;;;;6152368;23;20047;-93
2021/06/12 01:07:08;;;;;;;5.82;5.05;;;15.80;95.30;;;;;;6154270;23;20001;-93
2021/06/12 01:09:33;;;;;;;5.78;4.70;;;15.80;95.40;;;;;;6152934;23;20002;-93
2021/06/12 01:12:07;;;;;;;6.80;5.35;;;15.80;95.40;;;;;;6152222;23;20043;-93
2021/06/12 01:14:40;;;;;;;4.85;4.03;;;15.80;95.40;;;;;;6155940;23;19997;-92
2021/06/12 01:17:16;;;;;;;5.63;4.80;;;15.80;95.30;;;;;;6155400;23;19998;-92
2021/06/12 01:19:45;;;;;;;5.07;4.40;;;15.80;95.40;;;;;;6154407;23;20005;-93
2021/06/12 01:22:46;;;;;;;5.03;4.53;;;15.80;95.30;;;;;;6155349;23;20005;-93
2021/06/12 01:25:50;;;;;;;5.30;4.20;;;15.80;95.30;;;;;;6105870;23;20055;-92
2021/06/12 01:28:16;;;;;;;7.05;4.43;;;15.70;95.30;;;;;;6137079;23;20002;-93
2021/06/12 01:30:43;;;;;;;5.28;4.25;;;15.70;95.30;;;;;;6153145;23;20009;-93
2021/06/12 01:33:12;;;;;;;4.80;4.30;;;15.70;95.30;;;;;;6152677;23;20029;-93
2021/06/12 01:35:42;;;;;;;4.50;4.10;;;15.70;95.40;;;;;;6154289;23;20352;-93
2021/06/12 01:38:11;;;;;;;4.65;4.03;;;15.70;95.40;;;;;;6153074;23;20012;-93
2021/06/12 01:40:41;;;;;;;4.88;3.67;;;15.60;95.30;;;;;;6154284;23;20051;-93
2021/06/12 01:43:08;;;;;;;3.92;3.47;;;15.60;95.40;;;;;;6153015;23;20002;-92
2021/06/12 01:45:35;;;;;;;5.40;4.47;;;15.60;95.40;;;;;;6154437;23;20077;-93
2021/06/12 01:48:02;;;;;;;5.88;4.60;;;15.60;95.50;;;;;;6152911;23;20027;-93
2021/06/12 01:50:28;;;;;;;4.55;4.15;;;15.60;95.60;;;;;;6153035;23;20001;-93
2021/06/12 01:52:55;;;;;;;5.70;4.65;;;15.50;95.60;;;;;;6152794;23;20021;-93
2021/06/12 01:55:25;;;;;;;6.13;5.13;;;15.60;95.70;;;;;;6152736;23;20012;-93
2021/06/12 01:57:51;;;;;;;5.43;4.85;;;15.50;95.80;;;;;;6152399;23;19998;-93
2021/06/12 02:00:18;;;;;;;6.45;4.15;;;15.60;95.80;;;;;;6153284;23;20038;-93
2021/06/12 02:02:46;;;;;;;5.72;4.72;;;15.50;95.80;;;;;;6152495;23;20490;-93
2021/06/12 02:05:20;;;;;;;5.47;4.60;;;15.50;95.90;;;;;;6153001;23;20313;-93
2021/06/12 02:07:47;;;;;;;5.85;5.15;;;15.50;96.00;;;;;;6152724;23;20100;-93
2021/06/12 02:10:16;;;;;;;5.88;5.28;;;15.50;96.00;;;;;;6152950;23;20450;-93
2021/06/12 02:12:42;;;;;;;6.43;5.18;;;15.50;96.00;;;;;;6152871;23;20448;-93
2021/06/12 02:15:09;;;;;;;5.88;5.28;;;15.50;96.00;;;;;;6154618;23;20001;-93
2021/06/12 02:17:37;;;;;;;7.80;5.40;;;15.50;96.10;;;;;;6152852;23;20001;-93
2021/06/12 02:20:07;;;;;;;6.90;5.30;;;15.50;96.10;;;;;;6152938;23;20006;-93
2021/06/12 02:22:36;;;;;;;6.32;4.93;;;15.50;96.10;;;;;;6152554;23;20006;-93
2021/06/12 02:25:03;;;;;;;5.03;4.53;;;15.50;96.10;;;;;;6152602;23;20001;-93
2021/06/12 02:27:30;;;;;;;5.63;4.53;;;15.50;96.10;;;;;;6152381;23;20041;-92
2021/06/12 02:29:57;;;;;;;8.50;4.55;;;15.50;96.00;;;;;;6152756;23;20065;-92
2021/06/12 02:32:24;;;;;;;5.70;4.70;;;15.50;96.10;;;;;;6152560;23;20447;-93
2021/06/12 02:34:50;;;;;;;4.80;3.90;;;15.50;96.10;;;;;;6152494;23;20448;-93
2021/06/12 02:37:15;;;;;;;4.35;3.90;;;15.50;96.10;;;;;;6152561;23;19998;-92
2021/06/12 02:39:41;;;;;;;4.45;3.65;;;15.50;96.10;;;;;;6152366;23;20029;-92
2021/06/12 02:42:08;;;;;;;4.75;3.95;;;15.60;96.10;;;;;;6152691;23;20043;-92
2021/06/12 02:44:33;;;;;;;7.10;4.68;;;15.60;96.20;;;;;;6151416;23;20002;-92
2021/06/12 02:47:03;;;;;;;6.28;4.80;;;15.60;96.30;;;;;;6152601;23;20066;-92
2021/06/12 02:49:33;;;;;;;5.80;5.22;;;15.60;96.30;;;;;;6153473;23;20071;-92
2021/06/12 02:52:02;;;;;;;4.97;4.38;;;15.70;96.20;;;;;;6155457;23;20005;-92
2021/06/12 02:54:29;;;;;;;5.05;4.47;;;15.70;96.20;;;;;;6155655;23;20136;-92
2021/06/12 02:56:56;;;;;;;5.22;4.32;;;15.70;96.20;;;;;;6153058;23;20005;-92
2021/06/12 02:59:23;;;;;;;4.95;4.38;;;15.70;96.10;;;;;;6153061;23;20002;-92
2021/06/12 03:01:51;;;;;;;4.85;4.40;;;15.80;96.10;;;;;;6152285;23;19997;-93
2021/06/12 03:04:18;;;;;;;4.25;3.85;;;15.80;96.10;;;;;;6152711;23;20012;-93
2021/06/12 03:06:48;;;;;;;4.40;4.00;;;15.90;96.10;;;;;;6152561;23;20006;-92
2021/06/12 03:09:16;;;;;;;5.28;4.65;;;15.90;96.10;;;;;;6154085;23;20002;-93
2021/06/12 03:11:44;;;;;;;5.65;5.03;;;16.00;96.10;;;;;;6151943;23;20025;-93
2021/06/12 03:14:12;;;;;;;5.68;4.93;;;16.10;96.00;;;;;;6152874;23;20478;-94
2021/06/12 03:16:42;;;;;;;5.45;4.38;;;16.20;95.90;;;;;;6152265;22;20005;-93
2021/06/12 03:19:09;;;;;;;6.32;5.72;;;16.20;95.80;;;;;;6152578;23;20001;-93
2021/06/12 03:21:36;;;;;;;6.60;5.28;;;16.30;95.80;;;;;;6152176;23;20001;-93
2021/06/12 03:24:03;;;;;;;5.35;4.82;;;16.30;95.70;;;;;;6153257;23;20027;-93
2021/06/12 03:26:30;;;;;;;6.78;4.88;;;16.40;95.60;;;;;;6152604;23;20017;-93
2021/06/12 03:28:56;;;;;;;5.57;5.00;;;16.50;95.60;;;;;;6152708;23;20021;-93
2021/06/12 03:31:23;;;;;;;8.65;5.43;;;16.60;95.50;;;;;;6152672;23;20417;-93
2021/06/12 03:33:49;;;;;;;5.53;4.47;;;16.60;95.40;;;;;;6153043;23;20010;-92
2021/06/12 03:36:16;;;;;;;6.50;5.38;;;16.70;95.30;;;;;;6162582;23;20001;-91
2021/06/12 03:38:42;;;;;;;6.30;5.35;;;16.80;95.20;;;;;;6164282;23;20001;-91
2021/06/12 03:41:09;;;;;;;5.82;5.10;;;16.90;95.00;;;;;;6160490;23;20076;-92
2021/06/12 03:43:36;;;;;;;4.95;4.10;;;17.00;94.80;;;;;;6158296;23;19997;-93
2021/06/12 03:46:04;;;;;;;5.18;4.60;;;17.00;94.70;;;;;;6153948;23;20043;-93
2021/06/12 03:48:30;;;;;;;5.72;4.50;;;17.10;94.50;;;;;;6152474;23;20004;-92
2021/06/12 03:50:57;;;;;;;6.63;5.03;;;17.20;94.40;;;;;;6153662;23;20001;-93
2021/06/12 03:53:30;;;;;;;4.85;4.38;;;17.30;94.30;;;;;;6152458;23;20092;-94
2021/06/12 03:55:57;;;;;;;5.28;4.45;;;17.40;94.20;;;;;;6152671;23;20452;-93
2021/06/12 03:58:23;;;;;;;5.10;4.60;;;17.50;93.90;;;;;;6152375;23;20012;-93
2021/06/12 04:00:49;;;;;;;4.35;3.88;;;17.50;93.80;;;;;;6151478;23;20388;-92
2021/06/12 04:03:14;;;;;;;5.60;4.80;;;17.60;93.70;;;;;;6153678;22;20321;-93
2021/06/12 04:05:40;;;;;;;5.32;4.80;;;17.70;93.50;;;;;;6152499;23;20025;-93
2021/06/12 04:08:06;;;;;;;5.13;4.57;;;17.80;93.10;;;;;;6152634;23;20051;-93
2021/06/12 04:10:32;;;;;;;5.00;4.50;;;17.90;93.10;;;;;;6152010;23;20512;-93
2021/06/12 04:12:57;;;;;;;5.65;4.57;;;17.90;93.00;;;;;;6152142;23;20045;-93
2021/06/12 04:15:23;;;;;;;6.53;4.65;;;18.00;92.80;;;;;;6152465;23;20005;-93
2021/06/12 04:17:57;;;;;;;5.57;4.43;;;18.10;92.70;;;;;;6151891;23;20001;-93
2021/06/12 04:20:23;;;;;;;5.45;4.03;;;18.20;92.50;;;;;;6151935;23;20002;-93
2021/06/12 04:22:49;;;;;;;5.10;4.28;;;18.30;92.40;;;;;;6152114;23;20134;-93
2021/06/12 04:25:15;;;;;;;5.13;4.63;;;18.40;92.30;;;;;;6157425;23;20065;-93
2021/06/12 04:27:40;;;;;;;6.30;4.72;;;18.50;92.10;;;;;;6159717;23;20008;-92
2021/06/12 04:30:08;;;;;;;6.40;5.57;;;18.50;91.80;;;;;;6158996;23;19997;-92
2021/06/12 04:32:34;;;;;;;5.78;4.63;;;18.60;91.40;;;;;;6157541;23;20088;-92
2021/06/12 04:35:00;;;;;;;6.20;5.10;;;18.70;91.40;;;;;;6152264;23;20004;-93
2021/06/12 04:37:25;;;;;;;6.13;5.53;;;18.70;91.00;;;;;;6152730;23;19998;-92
2021/06/12 04:39:51;;;;;;;5.00;4.50;;;18.80;90.90;;;;;;6153908;23;20308;-93
2021/06/12 04:42:17;;;;;;;5.53;4.85;;;18.80;90.70;;;;;;6164773;23;20006;-92
2021/06/12 04:44:43;;;;;;;7.18;5.55;;;18.90;90.70;;;;;;6173416;23;20075;-91
2021/06/12 04:47:08;;;;;;;5.95;5.32;;;19.00;90.50;;;;;;6168767;23;20001;-92
2021/06/12 04:49:34;;;;;;;4.50;3.78;;;19.00;90.20;;;;;;6174975;23;20001;-92
2021/06/12 04:52:00;;;;;;;6.32;4.85;;;19.10;90.20;;;;;;6175580;23;20006;-92
2021/06/12 04:54:26;;;;;;;6.70;4.75;;;19.20;89.60;;;;;;6175387;23;20078;-91
2021/06/12 04:56:52;;;;;;;6.32;5.30;;;19.20;89.20;;;;;;6176924;23;20037;-92
2021/06/12 04:59:18;;;;;;;6.32;5.28;;;19.20;88.80;;;;;;6170279;23;20006;-92
2021/06/12 05:01:44;;;;;;;5.65;5.05;;;19.30;88.50;;;;;;6155993;23;20015;-93
2021/06/12 05:04:09;;;;;;;4.95;4.43;;;19.30;88.60;;;;;;6153551;23;20006;-92
2021/06/12 05:06:35;;;;;;;4.95;4.32;;;19.30;88.60;;;;;;6152626;23;20001;-92
2021/06/12 05:09:01;;;;;;;5.43;4.78;;;19.40;87.70;;;;;;6158510;23;20005;-93
2021/06/12 05:11:27;;;;;;;5.18;4.47;;;19.50;87.50;;;;;;6152840;23;20089;-92
2021/06/12 05:13:53;;;;;;;5.47;4.43;;;19.50;87.50;;;;;;6154291;23;20006;-93
2021/06/12 05:16:19;;;;;;;4.07;3.67;;;19.60;87.80;;;;;;6151997;23;20032;-93
2021/06/12 05:18:45;;;;;;;4.82;4.35;;;19.70;87.90;;;;;;6152562;23;20480;-93
2021/06/12 05:21:15;;;;;;;4.82;4.32;;;19.80;85.50;;;;;;6152608;23;19998;-94
2021/06/12 05:23:40;;;;;;;5.60;4.90;;;19.90;85.20;;;;;;6152805;23;20002;-93
2021/06/12 05:26:07;;;;;;;4.63;4.15;;;19.90;84.30;;;;;;6152488;23;20017;-93
2021/06/12 05:28:34;;;;;;;4.55;4.07;;;19.90;84.00;;;;;;6152268;23;19998;-93
2021/06/12 05:30:59;;;;;;;6.63;4.20;;;19.90;83.80;;;;;;6153980;23;20475;-93
2021/06/12 05:33:30;;;;;;;4.63;4.22;;;20.00;82.80;;;;;;6152983;23;20009;-92
2021/06/12 05:35:56;;;;;;;5.78;4.63;;;20.00;82.90;;;;;;6152678;23;19998;-93
2021/06/12 05:38:25;;;;;;;5.60;4.80;;;20.00;83.50;;;;;;6151635;23;20093;-94
2021/06/12 05:40:51;;;;;;;4.72;4.28;;;20.00;83.00;;;;;;6152837;23;20005;-92
2021/06/12 05:43:17;;;;;;;4.70;4.15;;;20.10;82.70;;;;;;6153424;23;20337;-94
2021/06/12 05:45:44;;;;;;;5.38;4.88;;;20.10;82.70;;;;;;6154142;23;20027;-93
2021/06/12 05:48:09;;;;;;;5.47;4.85;;;20.10;83.20;;;;;;6153524;23;20088;-94
2021/06/12 05:50:35;;;;;;;5.10;4.40;;;20.10;83.60;;;;;;6154982;22;20467;-93
2021/06/12 05:53:04;;;;;;;4.78;3.60;;;20.20;83.60;;;;;;6154546;23;20059;-93
2021/06/12 05:55:29;;;;;;;3.95;3.63;;;20.20;83.60;;;;;;6155392;23;20008;-93
2021/06/12 05:57:55;;;;;;;5.00;4.32;;;20.30;83.40;;;;;;6156398;23;19998;-93
2021/06/12 06:00:24;;;;;;;4.18;3.78;;;20.50;82.20;;;;;;6154702;23;20065;-93
2021/06/12 06:02:50;;;;;;;5.00;4.00;;;20.50;81.80;;;;;;6154880;23;20006;-93
2021/06/12 06:05:15;;;;;;;5.07;4.55;;;20.50;81.60;;;;;;6157583;23;20012;-93
2021/06/12 06:07:41;;;;;;;3.75;3.45;;;20.60;81.30;;;;;;6155378;23;20006;-94
2021/06/12 06:10:07;;;;;;;5.07;4.47;;;20.60;81.20;;;;;;6155433;23;20371;-92
2021/06/12 06:12:34;;;;;;;4.10;3.70;;;20.70;79.30;;;;;;6153175;23;20056;-93
2021/06/12 06:15:00;;;;;;;4.05;3.50;;;20.60;79.50;;;;;;6156920;23;19998;-92
2021/06/12 06:17:26;;;;;;;5.60;4.05;;;20.70;80.10;;;;;;6159405;23;20005;-92
2021/06/12 06:19:52;;;;;;;4.00;3.60;;;20.80;79.40;;;;;;6165496;23;20001;-92
2021/06/12 06:22:18;;;;;;;4.18;3.78;;;20.80;78.70;;;;;;6162038;23;20012;-92
2021/06/12 06:24:49;;;;;;;4.20;3.80;;;20.80;78.80;;;;;;6160663;23;20005;-93
2021/06/12 06:27:15;;;;;;;6.30;3.42;;;20.80;78.70;;;;;;6154295;22;20076;-93
2021/06/12 06:29:41;;;;;;;4.50;3.95;;;20.90;78.80;;;;;;6152860;23;20374;-93
2021/06/12 06:32:07;;;;;;;6.43;4.13;;;21.00;78.50;;;;;;6153039;23;20089;-93
2021/06/12 06:34:32;;;;;;;4.00;3.28;;;21.00;77.50;;;;;;6153008;23;20004;-93
2021/06/12 06:36:58;;;;;;;5.15;3.63;;;21.10;77.70;;;;;;6152212;23;20069;-92
2021/06/12 06:39:24;;;;;;;3.13;2.83;;;21.20;77.60;;;;;;6157432;23;20029;-93
2021/06/12 06:42:16;;;;;;;4.05;3.65;;;21.20;77.40;;;;;;6158368;23;20424;-93
2021/06/12 06:44:42;;;;;;;3.70;3.40;;;21.30;76.40;;;;;;6155478;23;20023;-93
2021/06/12 06:47:08;;;;;;;3.90;3.10;;;21.30;76.30;;;;;;6166128;23;19998;-92
2021/06/12 06:49:36;;;;;;;4.40;3.40;;;21.40;76.40;;;;;;6163818;23;19998;-93
2021/06/12 06:52:04;;;;;;;4.28;3.88;;;21.50;76.00;;;;;;6162121;23;20006;-92
2021/06/12 06:54:30;;;;;;;5.32;3.78;;;21.40;75.40;;;;;;6157456;23;20013;-91
2021/06/12 06:56:56;;;;;;;3.55;3.20;;;21.50;75.20;;;;;;6157077;23;20437;-92
2021/06/12 06:59:21;;;;;;;5.50;3.65;;;21.50;75.20;;;;;;6155032;23;20002;-92
2021/06/12 07:01:48;;;;;;;6.28;4.32;;;21.50;74.30;;;;;;6158167;23;20077;-92
2021/06/12 07:04:16;;;;;;;5.90;3.38;;;21.50;74.30;;;;;;6156267;22;20071;-92
2021/06/12 07:06:42;;;;;;;4.32;3.80;;;21.60;74.90;;;;;;6153166;23;19998;-93
2021/06/12 07:09:07;;;;;;;3.55;3.10;;;21.60;74.00;;;;;;6151788;23;20008;-94
2021/06/12 07:11:34;;;;;;;3.85;3.17;;;21.70;74.30;;;;;;6151285;23;20444;-93
2021/06/12 07:13:59;;;;;;;3.22;2.85;;;21.80;74.00;;;;;;6152986;23;20017;-92
2021/06/12 07:16:25;;;;;;;3.35;3.05;;;21.90;73.40;;;;;;6154020;22;20032;-94
2021/06/12 07:18:52;;;;;;;3.97;3.67;;;21.90;72.70;;;;;;6153131;23;20452;-95
2021/06/12 07:21:17;;;;;;;3.45;2.88;;;21.90;70.80;;;;;;6153315;23;20067;-94
2021/06/12 07:23:43;;;;;;;4.28;3.03;;;21.90;71.50;;;;;;6152997;23;20417;-93
2021/06/12 07:26:09;;;;;;;7.13;3.00;;;21.80;71.40;;;;;;6152816;23;20055;-93
2021/06/12 07:28:35;;;;;;;3.60;3.30;;;21.90;71.90;;;;;;6152755;23;20044;-92
2021/06/12 07:31:00;;;;;;;3.40;3.10;;;22.00;72.00;;;;;;6151922;23;20083;-92
2021/06/12 07:33:26;;;;;;;4.15;3.50;;;22.20;71.50;;;;;;6154361;22;20009;-94
2021/06/12 07:35:52;;;;;;;3.55;3.22;;;22.20;69.60;;;;;;6152574;23;20029;-93
2021/06/12 07:38:18;;;;;;;3.25;2.95;;;22.20;70.10;;;;;;6152781;23;20005;-93
2021/06/12 07:40:44;;;;;;;3.03;2.72;;;22.20;69.60;;;;;;6152877;23;20001;-93
2021/06/12 07:43:10;;;;;;;2.92;2.47;;;22.30;70.10;;;;;;6152085;23;20028;-93
2021/06/12 07:45:36;;;;;;;6.82;3.20;;;22.40;70.20;;;;;;6152081;23;19997;-94
2021/06/12 07:48:04;;;;;;;3.70;2.90;;;22.40;69.20;;;;;;6152288;23;20012;-92
2021/06/12 07:50:33;;;;;;;3.53;3.05;;;22.40;68.70;;;;;;6152732;23;20002;-93
2021/06/12 07:52:59;;;;;;;4.45;3.15;;;22.40;68.30;;;;;;6151944;23;20024;-92
2021/06/12 07:55:25;;;;;;;3.55;3.08;;;22.40;68.80;;;;;;6153070;23;20014;-93
2021/06/12 07:57:51;;;;;;;3.22;2.90;;;22.50;68.00;;;;;;6152606;23;20008;-93
2021/06/12 08:00:20;;;;;;;2.97;2.67;;;22.40;68.00;;;;;;6153162;23;20005;-94
2021/06/12 08:02:51;;;;;;;2.60;2.40;;;22.50;68.00;;;;;;6150712;23;20005;-92
2021/06/12 08:05:19;;;;;;;3.47;2.90;;;22.50;66.80;;;;;;6151786;23;20459;-92
2021/06/12 08:07:45;;;;;;;3.15;2.90;;;22.50;66.90;;;;;;6153674;23;20008;-93
2021/06/12 08:10:29;;;;;;;2.58;2.30;;;22.60;65.90;;;;;;6153682;22;20001;-93
2021/06/12 08:12:54;;;;;;;;;;;22.70;66.50;;;;;;6152920;23;20017;-93
2021/06/12 08:15:34;;;;;;;2.80;2.53;;;22.80;64.00;;;;;;6154509;23;19900;-93
2021/06/12 08:18:03;;;;;;;2.53;2.33;;;22.90;65.40;;;;;;6161658;23;19998;-93
2021/06/12 08:20:35;;;;;;;3.42;3.10;;;22.90;65.60;;;;;;6169895;23;20009;-93
2021/06/12 08:23:01;;;;;;;3.08;2.53;;;22.90;65.30;;;;;;6170480;23;20002;-91
2021/06/12 08:25:30;;;;;;;2.78;2.58;;;23.00;64.90;;;;;;6165394;23;19998;-93
2021/06/12 08:28:02;;;;;;;2.70;2.45;;;23.10;64.90;;;;;;6161120;23;20090;-93
2021/06/12 08:30:35;;;;;;;2.78;2.33;;;23.10;64.60;;;;;;6161982;23;20077;-92
2021/06/12 08:33:21;;;;;;;4.75;3.10;;;23.20;64.60;;;;;;6164892;23;20337;-93
2021/06/12 08:35:52;;;;;;;2.80;2.50;;;23.40;63.80;;;;;;6156587;23;20001;-92
2021/06/12 08:38:24;;;;;;;2.75;2.50;;;23.50;64.50;;;;;;6153312;23;20002;-93
2021/06/12 08:40:51;;;;;;;3.15;2.47;;;23.50;63.00;;;;;;6152817;23;20017;-94
2021/06/12 08:43:26;;;;;;;3.28;2.55;;;23.50;61.60;;;;;;6152237;23;20006;-93
2021/06/12 08:45:54;;;;;;;4.00;2.78;;;23.50;62.80;;;;;;6152298;23;20005;-94
2021/06/12 08:48:22;;;;;;;2.60;2.40;;;23.60;62.50;;;;;;6156238;22;20028;-91
2021/06/12 08:50:49;;;;;;;2.92;2.70;;;23.70;62.00;;;;;;6152195;23;20089;-93
2021/06/12 08:53:15;;;;;;;2.80;2.60;;;23.70;60.70;;;;;;6153325;23;20013;-92
2021/06/12 08:55:42;;;;;;;2.58;2.38;;;23.70;61.80;;;;;;6153577;23;20001;-92
2021/06/12 08:58:08;;;;;;;2.80;2.60;;;23.80;61.90;;;;;;6152962;23;20002;-93
2021/06/12 09:00:37;;;;;;;3.35;2.72;;;23.90;61.90;;;;;;6152210;23;20002;-93
2021/06/12 09:03:03;;;;;;;5.25;2.83;;;23.90;60.80;;;;;;6152937;23;19997;-93
2021/06/12 09:05:56;;;;;;;2.95;2.65;;;23.90;60.30;;;;;;6152531;23;20111;-92
2021/06/12 09:08:27;;;;;;;5.03;3.20;;;23.90;59.80;;;;;;6151737;23;20005;-93
2021/06/12 09:11:03;;;;;;;2.88;2.42;;;23.80;60.50;;;;;;6153848;23;20010;-92
2021/06/12 09:13:49;;;;;;;3.08;2.60;;;23.90;60.90;;;;;;6156085;23;20018;-92
2021/06/12 09:16:27;;;;;;;2.63;2.40;;;23.90;59.30;;;;;;6156687;23;20004;-93
2021/06/12 09:18:56;;;;;;;3.28;2.78;;;23.90;59.80;;;;;;6154571;23;20005;-92
2021/06/12 09:21:26;;;;;;;2.58;2.38;;;23.90;60.20;;;;;;6154244;23;20001;-92
2021/06/12 09:23:53;;;;;;;3.08;2.78;;;24.00;59.90;;;;;;6154408;23;19998;-93
2021/06/12 09:26:21;;;;;;;2.67;2.10;;;24.00;59.10;;;;;;6154868;23;20005;-92
2021/06/12 09:28:53;;;;;;;3.00;2.70;;;24.10;59.50;;;;;;6154374;23;20440;-91
2021/06/12 09:31:27;;;;;;;2.30;2.10;;;24.10;59.60;;;;;;6153671;23;20002;-91
2021/06/12 09:33:56;;;;;;;2.35;2.15;;;24.20;59.70;;;;;;6153067;23;20016;-95
2021/06/12 09:36:35;;;;;;;2.40;2.20;;;24.30;58.10;;;;;;6153296;23;19997;-92
2021/06/12 09:39:11;;;;;;;2.38;2.17;;;24.40;57.90;;;;;;6153278;23;20009;-94
2021/06/12 09:41:39;;;;;;;2.28;1.95;;;24.30;54.60;;;;;;6153120;22;19998;-93
2021/06/12 09:44:10;;;;;;;2.40;2.20;;;24.20;57.00;;;;;;6154656;23;20043;-94
2021/06/12 09:46:45;;;;;;;2.28;2.08;;;24.30;57.30;;;;;;6153950;23;20009;-94
2021/06/12 09:49:16;;;;;;;2.50;2.08;;;24.40;57.70;;;;;;6153413;23;19997;-94
2021/06/12 09:52:02;;;;;;;2.42;2.22;;;24.40;57.80;;;;;;6152958;23;20002;-93
2021/06/12 09:54:43;;;;;;;2.50;2.30;;;24.60;58.20;;;;;;6154796;23;20017;-93
2021/06/12 09:57:17;;;;;;;3.17;2.63;;;24.70;57.00;;;;;;6148929;23;20009;-93
2021/06/12 09:59:56;;;;;;;3.03;2.80;;;24.70;57.00;;;;;;6148380;23;20079;-93
2021/06/12 10:02:46;;;;;;;3.00;2.70;;;24.60;57.60;;;;;;6153762;23;20009;-95
2021/06/12 10:05:17;;;;;;;3.65;3.35;;;24.50;57.10;;;;;;6155709;23;20106;-94
2021/06/12 10:07:45;;;;;;;3.75;3.00;;;24.50;57.70;;;;;;6156000;23;20413;-93
2021/06/12 10:10:13;;;;;;;3.53;3.10;;;24.40;57.50;;;;;;6155670;23;20040;-94
2021/06/12 10:12:40;;;;;;;2.78;2.58;;;24.30;57.40;;;;;;6161382;23;20025;-94
2021/06/12 10:15:09;;;;;;;2.50;2.30;;;24.20;58.10;;;;;;6161504;23;20029;-94
2021/06/12 10:18:26;;;;;;;;;;;;;;;;;;;;;
2021/06/12 10:38:17;;;;;;;3.08;2.80;;;24.60;58.00;;;;;;6047520;23;20042;-91
2021/06/12 10:40:57;;;;;;;3.00;2.70;;;24.60;57.50;;;;;;6037495;23;20034;-89
2021/06/12 10:43:28;;;;;;;2.80;2.60;;;24.60;56.10;;;;;;6029977;23;20014;-89
2021/06/12 10:46:23;;;;;;;2.67;2.47;;;24.50;56.40;;;;;;6134593;23;20036;-90
2021/06/12 10:48:54;;;;;;;2.33;2.13;;;24.60;55.80;;;;;;6151763;23;20010;-89
2021/06/12 10:51:31;;;;;;;2.90;2.60;;;24.60;55.50;;;;;;6153128;23;20005;-88
2021/06/12 10:54:23;;;;;;;2.30;2.20;;;24.70;53.20;;;;;;6152691;23;20455;-89
2021/06/12 10:57:11;;;;;;;3.38;2.65;;;24.70;53.60;;;;;;6154086;23;20096;-90
2021/06/12 10:59:41;;;;;;;2.30;2.17;;;24.70;53.30;;;;;;6152365;23;20088;-90
2021/06/12 11:08:23;;;;;;;2.72;2.45;;;24.60;51.80;;;;;;6153186;23;20021;-89
2021/06/12 11:10:51;;;;;;;2.60;2.40;;;24.50;53.70;;;;;;6153665;23;20096;-89
2021/06/12 11:13:25;;;;;;;2.45;2.25;;;24.60;53.60;;;;;;6153402;23;20024;-90
2021/06/12 11:15:50;;;;;;;2.90;2.50;;;24.60;53.30;;;;;;6150829;23;20001;-89
2021/06/12 11:18:23;;;;;;;2.80;2.35;;;24.60;53.30;;;;;;6152364;22;20337;-90
2021/06/12 11:21:08;;;;;;;2.60;2.40;;;24.60;53.80;;;;;;6153522;23;20032;-88
2021/06/12 11:23:48;;;;;;;2.53;2.33;;;24.60;53.70;;;;;;6150973;22;20317;-89
2021/06/12 11:26:20;;;;;;;3.13;2.67;;;24.70;53.90;;;;;;6151617;23;20062;-90
2021/06/12 11:29:08;;;;;;;2.75;2.55;;;24.70;53.50;;;;;;6154162;23;20013;-90
2021/06/12 11:31:37;;;;;;;3.03;2.75;;;24.70;54.40;;;;;;6150119;23;20095;-89
2021/06/12 11:34:25;;;;;;;2.67;2.47;;;24.70;53.50;;;;;;6150942;23;20429;-91
2021/06/12 11:37:20;;;;;;;2.45;2.25;;;24.60;53.00;;;;;;6149035;23;20006;-90
2021/06/12 11:39:51;;;;;;;2.72;2.45;;;24.60;53.40;;;;;;6151676;23;20002;-89
2021/06/12 11:42:16;;;;;;;2.95;2.65;;;24.60;54.00;;;;;;6150842;23;20025;-90
2021/06/12 11:44:42;;;;;;;2.97;2.50;;;24.60;54.10;;;;;;6148911;23;20016;-88
2021/06/12 11:47:08;;;;;;;2.60;2.40;;;24.70;53.80;;;;;;6149073;23;20017;-90
2021/06/12 11:49:33;;;;;;;4.82;2.58;;;24.70;53.90;;;;;;6149296;23;20132;-89
2021/06/12 11:52:00;;;;;;;2.70;2.50;;;24.70;53.40;;;;;;6149101;23;20005;-89
2021/06/12 11:54:31;;;;;;;3.05;2.53;;;24.70;53.10;;;;;;6149092;23;20028;-90
2021/06/12 11:57:01;;;;;;;3.00;2.75;;;24.70;53.00;;;;;;6150459;23;20005;-90
2021/06/12 11:59:30;;;;;;;2.85;2.65;;;24.70;52.10;;;;;;6150494;23;20048;-90
2021/06/12 12:02:06;;;;;;;5.43;2.50;;;24.70;53.00;;;;;;6150864;23;20037;-89
2021/06/12 12:04:44;;;;;;;2.53;2.33;;;24.90;52.20;;;;;;6151077;22;20009;-90
2021/06/12 12:07:11;;;;;;;2.50;2.30;;;25.10;52.10;;;;;;6151170;23;20037;-90
2021/06/12 12:09:44;;;;;;;2.80;2.40;;;25.30;52.40;;;;;;6150305;23;20028;-89
2021/06/12 12:12:14;;;;;;;2.60;2.40;;;25.70;52.30;;;;;;6151468;23;20313;-91
2021/06/12 12:14:48;;;;;;;2.70;2.50;;;26.00;53.00;;;;;;6127289;23;20067;-91
2021/06/12 12:17:29;;;;;;;;;;;26.40;52.40;;;;;;6151152;23;20009;-90
2021/06/12 12:20:09;;;;;;;2.97;2.75;;;26.70;50.40;;;;;;6152947;23;19901;-90
2021/06/12 12:22:37;;;;;;;3.20;2.78;;;27.00;49.80;;;;;;6150798;23;20088;-90
2021/06/12 12:25:06;;;;;;;3.15;2.80;;;27.10;49.80;;;;;;6150904;23;20033;-90
2021/06/12 12:27:31;;;;;;;3.65;3.05;;;27.40;50.10;;;;;;6150181;23;20084;-91
2021/06/12 12:29:58;;;;;;;3.10;2.83;;;27.60;48.60;;;;;;6155011;23;20007;-90
2021/06/12 12:32:25;;;;;;;3.03;2.70;;;27.90;47.30;;;;;;6167742;23;20035;-90
2021/06/12 12:34:52;;;;;;;3.13;2.85;;;28.00;47.80;;;;;;6165833;23;20035;-90
2021/06/12 12:37:23;;;;;;;3.38;3.08;;;28.20;48.70;;;;;;6137053;23;20006;-91
2021/06/12 12:39:51;;;;;;;3.95;3.00;;;28.50;48.70;;;;;;6165258;23;20035;-93
2021/06/12 12:42:24;;;;;;;3.22;2.95;;;28.70;47.90;;;;;;6158783;23;20009;-92
2021/06/12 12:44:54;;;;;;;5.82;2.67;;;28.80;47.00;;;;;;6152922;23;20006;-90
2021/06/12 12:47:25;;;;;;;2.80;2.60;;;29.00;48.00;;;;;;6154952;23;20017;-91
2021/06/12 12:49:52;;;;;;;2.97;2.72;;;29.40;47.00;;;;;;6152336;23;20033;-91
2021/06/12 12:52:24;;;;;;;2.90;2.70;;;29.60;47.00;;;;;;6152997;23;20004;-92
2021/06/12 12:55:04;;;;;;;2.80;2.47;;;29.80;46.00;;;;;;6152914;23;20032;-90
2021/06/12 12:57:47;;;;;;;2.78;2.58;;;30.00;45.10;;;;;;6154108;23;20013;-92
2021/06/12 13:00:21;;;;;;;3.10;2.80;;;30.30;42.80;;;;;;6152039;23;20482;-91
2021/06/12 13:02:55;;;;;;;2.78;2.58;;;30.40;43.80;;;;;;6153402;23;20504;-90
2021/06/12 13:05:22;;;;;;;2.60;2.40;;;30.50;44.50;;;;;;6153470;23;20002;-91
2021/06/12 13:08:03;;;;;;;2.90;2.70;;;30.60;44.80;;;;;;6154019;23;20055;-91
2021/06/12 13:10:31;;;;;;;4.60;3.25;;;30.90;41.60;;;;;;6152082;23;20084;-92
2021/06/12 13:12:58;;;;;;;2.65;2.45;;;31.00;43.10;;;;;;6151969;23;20013;-91
2021/06/12 13:15:25;;;;;;;2.80;2.60;;;31.00;44.80;;;;;;6127827;23;20009;-91
2021/06/12 13:18:04;;;;;;;3.38;2.58;;;31.50;44.60;;;;;;6152757;23;20009;-91
2021/06/12 13:20:31;;;;;;;2.95;2.65;;;32.10;43.80;;;;;;6152522;23;20054;-93
2021/06/12 13:22:57;;;;;;;2.50;2.30;;;32.30;42.40;;;;;;6152609;23;19998;-91